Tri-Cities Airport

Airport
ICAO code: 
KPSC
Summary
ICAO Region: 
NAM
Territory: 
Location: 
Pasco, Washington,
Coordinates: 
Aerial View: 
46° 15' 28.314" N, 119° 7' 1.675" W
Airport LOS: 
Parallel Runway Operation
Airport WX: 
Mountain Waves
Metar
Observation
KPSC 040553Z AUTO 29004KT 10SM SCT090 03/M01 A3017 RMK AO2 SLP220 T00331011 10067 20017 58009
Station
Pasco, Tri-Cities Airport
Date/Time
2021-12-04 05:53:00
Wind direction
290°
Wind speed
04 kts
Lowest cloud amount
scattered clouds
Temperature
3.3°C
Dew point
-1.1°C
Humidity
72%
Weather condition
n/a

Description

Tri-Cities Airport is a public use airport located 3 km northwest of the central business district of Pasco, in Franklin County, Washington.

Climatology

Semi-arid climate (Köppen climate classification BSk) - Little precipitation, hot summers and cold winters, sometimes with large changes in temperature in a 24 hour period.

Runways

Designator Length Width Surface Rops
03R/21L 1348 23 ASP Yes/Yes
12/30 2348 46 ASP Yes/Yes
03L/21R 2350 46 ASP Yes/Yes
Airport map: 
Aerial View: 

SKYbrary Partners:

Safety knowledge contributed by: